createdAt,value
2018-10-18T00:00:24.489Z,84.82
2018-10-18T00:02:54.162Z,85.14
2018-10-18T00:05:23.683Z,84.76
2018-10-18T00:07:53.630Z,85.30
2018-10-18T00:10:22.913Z,85.33
2018-10-18T00:12:52.209Z,86.12
2018-10-18T00:15:21.758Z,85.76
2018-10-18T00:17:51.062Z,86.26
2018-10-18T00:20:20.675Z,86.34
2018-10-18T00:22:49.957Z,86.68
2018-10-18T00:25:19.547Z,86.68
2018-10-18T00:27:48.838Z,85.71
2018-10-18T00:30:18.242Z,85.96
2018-10-18T00:32:47.776Z,86.21
2018-10-18T00:35:17.085Z,86.19
2018-10-18T00:37:46.374Z,87.22
2018-10-18T00:40:15.923Z,86.29
2018-10-18T00:42:44.693Z,86.32
2018-10-18T00:45:13.617Z,86.50
2018-10-18T00:47:42.599Z,86.28
2018-10-18T00:50:11.657Z,86.26
2018-10-18T00:52:40.840Z,86.19
2018-10-18T00:55:10.111Z,86.46
2018-10-18T00:57:39.398Z,86.31
2018-10-18T01:00:08.478Z,85.89
2018-10-18T01:02:37.918Z,86.30
2018-10-18T01:05:06.642Z,86.48
2018-10-18T01:07:35.938Z,86.23
2018-10-18T01:10:04.683Z,86.59
2018-10-18T01:12:33.673Z,86.96
2018-10-18T01:15:02.964Z,86.97
2018-10-18T01:17:32.257Z,87.08
2018-10-18T01:20:01.945Z,87.15
2018-10-18T01:22:31.373Z,87.65
2018-10-18T01:25:00.986Z,87.92
2018-10-18T01:27:30.273Z,87.36
2018-10-18T01:29:59.593Z,87.91
2018-10-18T01:32:29.085Z,87.94
2018-10-18T01:34:58.358Z,88.01
2018-10-18T01:37:27.830Z,88.55
2018-10-18T01:39:57.421Z,88.08
2018-10-18T01:42:27.218Z,88.74
2018-10-18T01:44:56.806Z,88.77
2018-10-18T01:47:26.088Z,88.12
2018-10-18T01:49:55.434Z,88.25
2018-10-18T01:52:24.882Z,88.14
2018-10-18T01:54:54.046Z,88.01
2018-10-18T01:57:23.326Z,88.34
2018-10-18T01:59:54.343Z,87.90
2018-10-18T02:02:23.914Z,87.85
2018-10-18T02:04:54.250Z,88.38
2018-10-18T02:07:23.510Z,88.26
2018-10-18T02:09:54.261Z,88.14
2018-10-18T02:12:23.579Z,88.58
2018-10-18T02:14:54.434Z,88.15
2018-10-18T02:17:24.071Z,88.62
2018-10-18T02:19:54.402Z,89.12
2018-10-18T02:22:23.981Z,89.69
2018-10-18T02:24:54.356Z,89.97
2018-10-18T02:27:24.096Z,89.57
2018-10-18T02:29:54.411Z,89.80
2018-10-18T02:32:23.994Z,90.14
2018-10-18T02:34:54.609Z,89.71
2018-10-18T02:37:23.846Z,90.01
2018-10-18T02:39:54.470Z,89.94
2018-10-18T02:42:23.701Z,90.45
2018-10-18T02:44:54.410Z,90.83
2018-10-18T02:47:24.018Z,90.70
2018-10-18T02:49:54.356Z,90.83
2018-10-18T02:52:23.947Z,91.34
2018-10-18T02:54:54.359Z,90.70
2018-10-18T02:57:23.660Z,90.95
2018-10-18T02:59:54.526Z,90.61
2018-10-18T03:02:24.106Z,90.64
2018-10-18T03:04:54.535Z,90.67
2018-10-18T03:07:24.074Z,89.74
2018-10-18T03:09:54.402Z,89.24
2018-10-18T03:12:36.131Z,89.08
2018-10-18T03:15:06.121Z,88.79
2018-10-18T03:17:35.412Z,89.00
2018-10-18T03:20:04.131Z,88.47
2018-10-18T03:22:33.431Z,88.28
2018-10-18T03:25:02.492Z,88.05
2018-10-18T03:27:32.325Z,87.48
2018-10-18T03:30:02.188Z,87.51
2018-10-18T03:32:31.638Z,87.28
2018-10-18T03:35:01.225Z,86.92
2018-10-18T03:37:30.515Z,86.69
2018-10-18T03:40:00.395Z,86.70
2018-10-18T03:42:29.696Z,86.71
2018-10-18T03:44:59.006Z,87.39
2018-10-18T03:47:28.306Z,86.89
2018-10-18T03:49:57.850Z,86.91
2018-10-18T03:52:27.333Z,86.68
2018-10-18T03:54:56.870Z,87.59
2018-10-18T03:57:26.060Z,88.92
2018-10-18T03:59:55.627Z,88.55
2018-10-18T04:02:25.252Z,89.12
2018-10-18T04:04:54.628Z,88.73
2018-10-18T04:07:24.214Z,89.25
2018-10-18T04:09:54.541Z,89.82
2018-10-18T04:12:23.949Z,90.12
2018-10-18T04:14:54.674Z,89.80
2018-10-18T04:17:24.282Z,90.30
2018-10-18T04:19:54.574Z,90.65
2018-10-18T04:22:24.156Z,91.36
2018-10-18T04:24:54.575Z,91.16
2018-10-18T04:27:23.879Z,89.87
2018-10-18T04:29:54.750Z,89.82
2018-10-18T04:32:24.041Z,90.04
2018-10-18T04:34:54.642Z,89.05
2018-10-18T04:37:24.340Z,89.39
2018-10-18T04:39:54.605Z,90.09
2018-10-18T04:42:23.885Z,89.78
2018-10-18T04:44:54.830Z,89.13
2018-10-18T04:47:43.970Z,89.22
2018-10-18T04:50:16.845Z,88.34
2018-10-18T04:52:50.333Z,88.42
2018-10-18T04:55:19.646Z,88.38
2018-10-18T04:57:48.934Z,88.20
2018-10-18T05:00:17.908Z,88.17
2018-10-18T05:02:47.034Z,88.24
2018-10-18T05:08:17.250Z,89.82
2018-10-18T05:10:46.586Z,90.10
2018-10-18T05:13:16.302Z,89.97
2018-10-18T05:15:45.382Z,89.31
2018-10-18T05:18:14.685Z,89.72
2018-10-18T05:20:43.763Z,89.13
2018-10-18T05:23:13.402Z,88.90
2018-10-18T05:25:42.801Z,89.14
2018-10-18T05:28:12.766Z,89.98
2018-10-18T05:30:42.081Z,89.67
2018-10-18T05:33:11.107Z,90.38
2018-10-18T05:35:40.335Z,89.78
2018-10-18T05:38:09.411Z,89.77
2018-10-18T05:40:38.378Z,90.05
2018-10-18T05:43:08.001Z,90.60
2018-10-18T05:45:37.671Z,90.31
2018-10-18T05:48:06.653Z,90.49
2018-10-18T05:50:35.618Z,90.82
2018-10-18T05:53:04.603Z,90.60
2018-10-18T05:55:34.741Z,90.36
2018-10-18T05:58:04.287Z,90.42
2018-10-18T06:00:33.391Z,90.25
2018-10-18T06:03:02.886Z,90.68
2018-10-18T06:05:32.483Z,90.42
2018-10-18T06:08:01.514Z,90.15
2018-10-18T06:10:42.066Z,90.71
2018-10-18T06:13:11.394Z,90.70
2018-10-18T06:15:40.838Z,91.03
2018-10-18T06:18:10.138Z,91.45
2018-10-18T06:20:39.639Z,91.38
2018-10-18T06:23:08.969Z,91.52
2018-10-18T06:25:38.619Z,91.73
2018-10-18T06:28:08.402Z,91.60
2018-10-18T06:30:37.759Z,91.65
2018-10-18T06:33:06.802Z,91.30
2018-10-18T06:35:36.098Z,91.83
2018-10-18T06:38:05.539Z,91.35
2018-10-18T06:40:34.844Z,91.58
2018-10-18T06:43:03.945Z,90.88
2018-10-18T06:45:33.754Z,90.54
2018-10-18T06:48:03.112Z,90.56
2018-10-18T06:50:32.687Z,89.18
2018-10-18T06:53:03.353Z,89.81
2018-10-18T06:55:32.459Z,89.51
2018-10-18T06:58:01.905Z,89.72
2018-10-18T07:00:31.251Z,90.04
2018-10-18T07:03:00.871Z,90.84
2018-10-18T07:05:30.179Z,90.52
2018-10-18T07:07:59.715Z,90.47
2018-10-18T07:10:29.014Z,90.18
2018-10-18T07:12:58.623Z,90.07
2018-10-18T07:15:27.996Z,89.42
2018-10-18T07:17:57.316Z,88.46
2018-10-18T07:20:26.979Z,88.23
2018-10-18T07:22:56.262Z,87.91
2018-10-18T07:25:25.932Z,88.70
2018-10-18T07:27:55.366Z,89.61
2018-10-18T07:30:24.958Z,89.96
2018-10-18T07:32:55.272Z,90.28
2018-10-18T07:35:24.855Z,91.43
2018-10-18T07:37:55.323Z,91.13
2018-10-18T07:40:24.962Z,91.05
2018-10-18T07:42:54.890Z,90.17
2018-10-18T07:45:24.182Z,90.07
2018-10-18T07:47:53.518Z,88.97
2018-10-18T07:50:22.995Z,88.75
2018-10-18T07:52:52.312Z,88.23
2018-10-18T07:55:21.976Z,87.64
2018-10-18T07:57:51.270Z,87.39
2018-10-18T08:00:20.631Z,86.57
2018-10-18T08:02:50.094Z,83.50
2018-10-18T08:05:19.394Z,82.52
2018-10-18T08:07:48.695Z,80.52
2018-10-18T08:10:18.230Z,80.29
2018-10-18T08:12:47.203Z,80.38
2018-10-18T08:15:16.586Z,78.16
2018-10-18T08:17:46.099Z,78.15
2018-10-18T08:20:15.395Z,77.57
2018-10-18T08:22:44.748Z,78.35
2018-10-18T08:25:13.942Z,79.08
2018-10-18T08:27:42.865Z,78.97
2018-10-18T08:30:12.243Z,79.26
2018-10-18T08:32:41.534Z,78.20
2018-10-18T08:35:10.891Z,77.42
2018-10-18T08:37:40.279Z,78.08
2018-10-18T08:40:09.643Z,77.93
2018-10-18T08:42:39.111Z,78.37
2018-10-18T08:45:07.885Z,78.06
2018-10-18T08:47:36.948Z,77.55
2018-10-18T08:50:06.121Z,77.03
2018-10-18T08:52:35.491Z,75.94
2018-10-18T08:55:04.597Z,75.09
2018-10-18T08:57:34.179Z,74.01
2018-10-18T09:00:03.246Z,72.33
2018-10-18T09:02:33.033Z,73.34
2018-10-18T09:05:02.853Z,73.54
2018-10-18T09:07:32.305Z,72.57
2018-10-18T09:10:01.594Z,71.64
2018-10-18T09:12:31.234Z,71.35
2018-10-18T09:15:00.299Z,69.62
2018-10-18T09:17:29.381Z,70.27
2018-10-18T09:19:58.991Z,71.09
2018-10-18T09:22:27.962Z,71.47
2018-10-18T09:24:57.685Z,72.13
2018-10-18T09:27:27.144Z,71.87
2018-10-18T09:29:56.722Z,72.15
2018-10-18T09:32:26.270Z,73.60
2018-10-18T09:34:56.260Z,74.81
2018-10-18T09:37:25.569Z,74.81
2018-10-18T09:39:55.895Z,74.19
2018-10-18T09:42:25.210Z,75.12
2018-10-18T09:44:55.580Z,75.45
2018-10-18T09:47:25.287Z,76.67
2018-10-18T09:49:55.918Z,75.96
2018-10-18T09:52:25.403Z,77.03
2018-10-18T09:54:55.660Z,77.15
2018-10-18T09:57:25.288Z,78.37
2018-10-18T09:59:55.290Z,78.64
2018-10-18T10:02:24.358Z,79.63
2018-10-18T10:04:53.667Z,80.35
2018-10-18T10:07:23.090Z,80.90
2018-10-18T10:09:52.384Z,80.81
2018-10-18T10:12:21.694Z,82.25
2018-10-18T10:14:51.852Z,82.97
2018-10-18T10:17:21.310Z,82.71
2018-10-18T10:19:50.771Z,82.79
2018-10-18T10:22:19.466Z,82.88
2018-10-18T10:24:48.522Z,82.83
2018-10-18T10:27:18.266Z,83.25
2018-10-18T10:29:47.566Z,83.33
2018-10-18T10:32:16.883Z,82.60
2018-10-18T10:34:46.525Z,83.17
2018-10-18T10:37:15.549Z,83.09
2018-10-18T10:39:45.291Z,83.03
2018-10-18T10:42:14.671Z,84.40
2018-10-18T10:44:43.841Z,84.11
2018-10-18T10:47:12.986Z,83.75
2018-10-18T10:49:42.549Z,83.79
2018-10-18T10:52:11.956Z,84.95
2018-10-18T10:54:41.449Z,84.67
2018-10-18T10:57:10.692Z,83.74
2018-10-18T10:59:40.386Z,83.69
2018-10-18T11:02:10.099Z,83.26
2018-10-18T11:04:39.301Z,84.00
2018-10-18T11:07:08.706Z,84.03
2018-10-18T11:09:38.333Z,84.28
2018-10-18T11:12:07.867Z,83.48
2018-10-18T11:14:37.507Z,84.15
2018-10-18T11:17:07.487Z,83.47
2018-10-18T11:19:36.937Z,84.58
2018-10-18T11:22:06.323Z,84.15
2018-10-18T11:24:35.631Z,84.09
2018-10-18T11:27:05.418Z,84.58
2018-10-18T11:29:34.850Z,84.05
2018-10-18T11:32:04.454Z,83.58
2018-10-18T11:34:33.777Z,83.50
2018-10-18T11:37:03.118Z,83.73
2018-10-18T11:39:32.417Z,83.81
2018-10-18T11:42:01.713Z,83.20
2018-10-18T11:44:31.194Z,82.37
2018-10-18T11:47:00.583Z,82.42
2018-10-18T11:49:29.853Z,81.27
2018-10-18T11:51:59.756Z,81.65
2018-10-18T11:54:29.176Z,81.21
2018-10-18T11:56:58.498Z,80.96
2018-10-18T11:59:27.541Z,80.11
2018-10-18T12:01:56.891Z,81.13
2018-10-18T12:04:26.136Z,80.90
2018-10-18T12:06:56.225Z,81.57
2018-10-18T12:09:25.669Z,81.41
2018-10-18T12:11:55.973Z,81.56
2018-10-18T12:14:26.127Z,80.87
2018-10-18T12:16:55.913Z,80.17
2018-10-18T12:19:25.562Z,80.27
2018-10-18T12:21:55.889Z,80.03
2018-10-18T12:24:25.401Z,80.42
2018-10-18T12:26:54.369Z,80.23
2018-10-18T12:29:23.481Z,81.22
2018-10-18T12:31:52.793Z,80.73
2018-10-18T12:34:23.282Z,80.05
2018-10-18T12:36:52.744Z,81.03
2018-10-18T12:39:22.041Z,81.54
2018-10-18T12:41:51.656Z,82.13
2018-10-18T12:44:21.420Z,82.67
2018-10-18T12:46:50.377Z,83.17
2018-10-18T12:49:19.637Z,83.39
2018-10-18T12:51:48.905Z,84.24
2018-10-18T12:54:18.561Z,84.41
2018-10-18T12:56:47.993Z,84.90
2018-10-18T12:59:17.557Z,84.60
2018-10-18T13:01:46.893Z,84.89
2018-10-18T13:04:16.576Z,84.62
2018-10-18T13:06:46.062Z,84.95
2018-10-18T13:09:15.325Z,84.75
2018-10-18T13:11:44.609Z,85.59
2018-10-18T13:14:14.040Z,84.87
2018-10-18T13:16:43.649Z,84.97
2018-10-18T13:19:13.001Z,84.80
2018-10-18T13:21:42.282Z,84.95
2018-10-18T13:24:12.046Z,85.12
2018-10-18T13:26:41.669Z,85.16
2018-10-18T13:29:10.953Z,86.08
2018-10-18T13:31:40.237Z,87.07
2018-10-18T13:34:09.763Z,86.76
2018-10-18T13:36:38.954Z,86.98
2018-10-18T13:39:08.308Z,87.18
2018-10-18T13:41:37.170Z,87.58
2018-10-18T13:44:07.030Z,88.25
2018-10-18T13:46:36.500Z,88.00
2018-10-18T13:49:05.617Z,88.70
2018-10-18T13:51:34.649Z,88.63
2018-10-18T13:54:03.796Z,88.44
2018-10-18T13:56:33.442Z,88.12
2018-10-18T13:59:03.198Z,88.41
2018-10-18T14:01:32.370Z,88.47
2018-10-18T14:04:02.231Z,88.31
2018-10-18T14:06:31.518Z,88.68
2018-10-18T14:09:01.082Z,88.85
2018-10-18T14:11:30.078Z,88.47
2018-10-18T14:13:59.400Z,88.29
2018-10-18T14:16:28.970Z,88.30
2018-10-18T14:18:58.458Z,87.78
2018-10-18T14:21:27.777Z,88.04
2018-10-18T14:23:57.362Z,88.32
2018-10-18T14:26:26.979Z,87.81
2018-10-18T14:28:56.123Z,87.18
2018-10-18T14:31:25.586Z,86.03
2018-10-18T14:33:56.328Z,85.69
2018-10-18T14:36:25.591Z,85.52
2018-10-18T14:38:56.744Z,86.23
2018-10-18T14:41:26.079Z,85.86
2018-10-18T14:43:56.529Z,86.05
2018-10-18T14:46:26.085Z,85.48
2018-10-18T14:48:56.419Z,85.65
2018-10-18T14:51:25.680Z,85.35
2018-10-18T14:53:56.513Z,85.27
2018-10-18T14:56:26.188Z,84.66
2018-10-18T14:58:56.457Z,84.32
2018-10-18T15:01:26.081Z,84.51
2018-10-18T15:03:56.438Z,83.80
2018-10-18T15:06:25.701Z,82.78
2018-10-18T15:08:56.461Z,82.68
2018-10-18T15:11:26.013Z,81.68
2018-10-18T15:13:56.563Z,82.27
2018-10-18T15:16:26.193Z,81.99
2018-10-18T15:18:56.476Z,81.36
2018-10-18T15:21:25.741Z,80.46
2018-10-18T15:23:56.642Z,78.43
2018-10-18T15:26:26.330Z,78.86
2018-10-18T15:28:56.552Z,79.91
2018-10-18T15:31:26.146Z,79.64
2018-10-18T15:33:56.558Z,79.04
2018-10-18T15:36:25.837Z,78.63
2018-10-18T15:38:56.786Z,79.13
2018-10-18T15:41:26.233Z,79.07
2018-10-18T15:43:56.497Z,79.76
2018-10-18T15:46:25.748Z,79.48
2018-10-18T15:48:56.868Z,79.62
2018-10-18T15:51:26.349Z,80.43
2018-10-18T15:53:56.736Z,80.29
2018-10-18T15:56:26.197Z,80.10
2018-10-18T15:58:56.567Z,79.83
2018-10-18T16:01:25.977Z,79.44
2018-10-18T16:03:56.541Z,79.74
2018-10-18T16:06:25.851Z,80.26
2018-10-18T16:08:56.661Z,80.07
2018-10-18T16:11:26.290Z,80.01
2018-10-18T16:13:56.765Z,80.32
2018-10-18T16:16:26.342Z,79.87
2018-10-18T16:18:56.675Z,79.73
2018-10-18T16:21:26.001Z,80.47
2018-10-18T16:23:56.685Z,80.85
2018-10-18T16:26:26.301Z,80.33
2018-10-18T16:28:56.742Z,79.93
2018-10-18T16:31:26.320Z,79.10
2018-10-18T16:33:56.878Z,79.88
2018-10-18T16:36:26.474Z,79.24
2018-10-18T16:38:56.709Z,79.65
2018-10-18T16:41:26.486Z,79.96
2018-10-18T16:43:56.447Z,80.21
2018-10-18T16:46:25.874Z,79.33
2018-10-18T16:48:56.706Z,79.61
2018-10-18T16:51:25.998Z,79.23
2018-10-18T16:53:56.943Z,79.04
2018-10-18T16:56:36.473Z,79.79
2018-10-18T16:59:05.713Z,79.38
2018-10-18T17:01:35.465Z,79.14
2018-10-18T17:04:04.248Z,79.28
2018-10-18T17:06:33.465Z,79.23
2018-10-18T17:09:02.661Z,78.91
2018-10-18T17:11:31.955Z,79.41
2018-10-18T17:14:01.640Z,79.61
2018-10-18T17:16:31.401Z,80.07
2018-10-18T17:19:00.859Z,79.77
2018-10-18T17:21:30.418Z,80.25
2018-10-18T17:24:00.078Z,80.63
2018-10-18T17:26:29.393Z,81.24
2018-10-18T17:28:58.845Z,80.99
2018-10-18T17:31:28.654Z,81.75
2018-10-18T17:33:58.300Z,81.63
2018-10-18T17:36:27.634Z,81.46
2018-10-18T17:38:57.021Z,81.49
2018-10-18T17:41:26.022Z,81.72
2018-10-18T17:43:56.885Z,81.82
2018-10-18T17:46:26.481Z,81.44
2018-10-18T17:48:56.821Z,81.22
2018-10-18T17:51:26.363Z,81.66
2018-10-18T17:53:56.961Z,81.13
2018-10-18T17:56:26.249Z,81.84
2018-10-18T17:58:56.834Z,81.71
2018-10-18T18:01:26.406Z,81.67
2018-10-18T18:03:56.816Z,81.99
2018-10-18T18:06:26.730Z,81.19
2018-10-18T18:08:56.644Z,81.73
2018-10-18T18:11:26.154Z,81.50
2018-10-18T18:13:56.954Z,81.49
2018-10-18T18:16:27.001Z,81.72
2018-10-18T18:18:57.067Z,81.93
2018-10-18T18:21:26.645Z,81.99
2018-10-18T18:23:57.323Z,82.24
2018-10-18T18:26:32.715Z,82.67
2018-10-18T18:28:57.678Z,82.57
2018-10-18T18:31:34.400Z,82.69
2018-10-18T18:34:16.500Z,82.80
2018-10-18T18:36:57.637Z,83.20
2018-10-18T18:39:26.708Z,83.06
2018-10-18T18:41:55.958Z,83.60
2018-10-18T18:44:25.673Z,83.53
2018-10-18T18:46:57.522Z,83.95
2018-10-18T18:49:28.218Z,83.64
2018-10-18T18:51:57.791Z,83.86
2018-10-18T18:54:27.061Z,84.54
2018-10-18T18:56:57.242Z,83.99
2018-10-18T18:59:26.677Z,84.52
2018-10-18T19:01:56.978Z,85.03
2018-10-18T19:04:26.585Z,84.77
2018-10-18T19:06:57.002Z,85.06
2018-10-18T19:09:26.285Z,85.12
2018-10-18T19:11:56.796Z,85.24
2018-10-18T19:14:25.747Z,85.70
2018-10-18T19:16:55.242Z,85.75
2018-10-18T19:19:24.678Z,85.57
2018-10-18T19:21:53.958Z,85.99
2018-10-18T19:24:23.165Z,86.20
2018-10-18T19:26:52.494Z,85.94
2018-10-18T19:29:22.166Z,86.06
2018-10-18T19:32:05.300Z,86.56
2018-10-18T19:34:34.611Z,86.08
2018-10-18T19:37:03.951Z,85.61
2018-10-18T19:39:33.222Z,86.15
2018-10-18T19:42:02.801Z,86.17
2018-10-18T19:44:32.297Z,85.65
2018-10-18T19:47:01.534Z,86.63
2018-10-18T19:49:30.905Z,86.38
2018-10-18T19:51:59.854Z,86.97
2018-10-18T19:54:29.026Z,87.39
2018-10-18T19:56:58.300Z,87.28
2018-10-18T19:59:41.123Z,87.43
2018-10-18T20:02:15.811Z,87.96
2018-10-18T20:04:45.319Z,87.54
2018-10-18T20:07:14.907Z,87.73
2018-10-18T20:09:44.230Z,87.62
2018-10-18T20:12:13.932Z,87.76
2018-10-18T20:14:43.384Z,87.94
2018-10-18T20:17:13.121Z,87.41
2018-10-18T20:19:43.692Z,87.77
2018-10-18T20:22:12.891Z,87.03
2018-10-18T20:24:42.324Z,87.66
2018-10-18T20:27:11.418Z,87.36
2018-10-18T20:29:40.878Z,87.47
2018-10-18T20:32:10.393Z,87.37
2018-10-18T20:34:39.814Z,87.86
2018-10-18T20:37:09.131Z,87.66
2018-10-18T20:39:38.436Z,88.18
2018-10-18T20:42:08.191Z,87.67
2018-10-18T20:44:37.454Z,88.01
2018-10-18T20:47:06.809Z,87.58
2018-10-18T20:49:35.978Z,87.41
2018-10-18T20:52:05.620Z,88.04
2018-10-18T20:54:34.385Z,88.15
2018-10-18T20:57:13.526Z,87.85
2018-10-18T20:59:43.010Z,88.08
2018-10-18T21:02:12.302Z,88.30
2018-10-18T21:04:42.073Z,88.14
2018-10-18T21:07:24.291Z,87.85
2018-10-18T21:09:53.847Z,87.90
2018-10-18T21:12:22.838Z,88.45
2018-10-18T21:14:52.095Z,88.39
2018-10-18T21:17:21.854Z,87.73
2018-10-18T21:22:48.345Z,87.79
2018-10-18T21:25:17.608Z,87.83
2018-10-18T21:27:49.788Z,87.58
2018-10-18T21:30:20.499Z,87.97
2018-10-18T21:35:54.144Z,88.00
2018-10-18T21:38:25.969Z,88.16
2018-10-18T21:40:55.281Z,88.71
2018-10-18T21:43:25.015Z,88.05
2018-10-18T21:45:54.602Z,88.29
2018-10-18T21:48:23.802Z,88.08
2018-10-18T21:50:53.275Z,88.20
2018-10-18T21:53:22.698Z,88.13
2018-10-18T21:55:52.105Z,88.04
2018-10-18T21:58:20.819Z,87.97
2018-10-18T22:00:50.545Z,88.20
2018-10-18T22:03:19.794Z,88.21
2018-10-18T22:05:49.250Z,88.42
2018-10-18T22:08:18.534Z,88.33
2018-10-18T22:10:48.110Z,88.44
2018-10-18T22:13:17.376Z,88.52
2018-10-18T22:18:44.126Z,88.77
2018-10-18T22:21:13.681Z,88.71
2018-10-18T22:23:43.449Z,88.80
2018-10-18T22:26:13.014Z,88.66
2018-10-18T22:28:42.281Z,89.10
2018-10-18T22:31:12.041Z,89.17
2018-10-18T22:33:41.306Z,88.95
2018-10-18T22:36:10.866Z,88.99
2018-10-18T22:38:40.249Z,89.08
2018-10-18T22:41:09.628Z,89.29
2018-10-18T22:43:38.871Z,89.10
2018-10-18T22:46:08.188Z,89.16
2018-10-18T22:48:37.449Z,89.25
2018-10-18T22:51:07.046Z,89.46
2018-10-18T22:53:36.502Z,89.45
2018-10-18T22:56:05.898Z,89.13
2018-10-18T22:58:35.242Z,89.35
2018-10-18T23:01:04.167Z,89.43
2018-10-18T23:03:33.189Z,89.43
2018-10-18T23:06:14.585Z,89.49
2018-10-18T23:08:47.878Z,89.20
2018-10-18T23:11:17.372Z,89.15
2018-10-18T23:13:46.865Z,89.15
2018-10-18T23:16:16.242Z,88.71
2018-10-18T23:18:45.493Z,89.04
2018-10-18T23:21:14.823Z,88.77
2018-10-18T23:23:44.373Z,88.91
2018-10-18T23:26:13.497Z,88.88
2018-10-18T23:28:42.754Z,88.71
2018-10-18T23:31:12.294Z,88.30
2018-10-18T23:33:41.901Z,88.26
2018-10-18T23:36:11.456Z,88.54
2018-10-18T23:38:41.430Z,88.58
2018-10-18T23:41:10.622Z,88.65
2018-10-18T23:43:40.351Z,88.92
2018-10-18T23:46:09.626Z,89.01
2018-10-18T23:48:38.764Z,89.16
2018-10-18T23:51:08.011Z,89.11
2018-10-18T23:53:37.525Z,89.18
2018-10-18T23:56:07.075Z,89.17
2018-10-18T23:58:36.584Z,89.13
